0NC7 weather

Lindsay Airport
Madison, North Carolina, United States

Public forecast

Using degrees Fahrenheit for public forecast. Weather courtesy of forecast.io.

METAR (pilot weather report)

Report is more than 6 hours old.

Closest report is Rockingham County NC Shiloh Airport, 8.6 nm (15.8 km) NE. Retrieved 2019/07/23 13:35 UTC (13 hours ago):

KSIF 231335Z AUTO BKN004 OVC008 22/21 A2991 RMK AO2 T02200213 PWINO

TAF (pilot weather forecast)

Forecast is more than 12 hours old.

Closest forecast is Piedmont Triad International Airport, 15.8 nm (29.3 km) S. Retrieved 2019/07/23 00:39 UTC (1 day ago):

TAF KGSO 232335Z 2400/2424 02006KT P6SM SCT070 BKN250 FM241300 03009KT P6SM SCT050